createdAt,value
2023-05-09T00:00:13.717Z,100720.88
2023-05-09T00:02:46.039Z,100714.50
2023-05-09T00:05:13.186Z,100718.59
2023-05-09T00:07:39.958Z,100719.72
2023-05-09T00:10:07.023Z,100723.94
2023-05-09T00:12:33.638Z,100725.78
2023-05-09T00:15:00.277Z,100723.31
2023-05-09T00:17:28.585Z,100725.09
2023-05-09T00:19:55.521Z,100713.47
2023-05-09T00:22:22.308Z,100708.94
2023-05-09T00:24:49.475Z,100718.25
2023-05-09T00:27:16.556Z,100713.28
2023-05-09T00:29:43.561Z,100715.44
2023-05-09T00:32:10.900Z,100711.72
2023-05-09T00:34:38.045Z,100715.47
2023-05-09T00:37:04.634Z,100715.69
2023-05-09T00:39:31.296Z,100708.09
2023-05-09T00:41:57.998Z,100701.41
2023-05-09T00:44:24.648Z,100700.25
2023-05-09T00:46:51.375Z,100696.50
2023-05-09T00:49:18.034Z,100684.88
2023-05-09T00:51:44.646Z,100684.28
2023-05-09T00:54:12.075Z,100681.16
2023-05-09T00:56:39.300Z,100675.00
2023-05-09T00:59:06.559Z,100667.28
2023-05-09T01:01:33.282Z,100662.16
2023-05-09T01:04:00.238Z,100651.69
2023-05-09T01:06:52.107Z,100643.19
2023-05-09T01:09:42.935Z,100640.75
2023-05-09T01:12:29.400Z,100644.31
2023-05-09T01:15:17.815Z,100635.00
2023-05-09T01:17:51.903Z,100631.50
2023-05-09T01:20:39.988Z,100623.81
2023-05-09T01:23:13.273Z,100619.47
2023-05-09T01:26:03.090Z,100612.44
2023-05-09T01:29:17.843Z,100602.53
2023-05-09T01:31:45.690Z,100600.13
2023-05-09T01:34:15.488Z,100597.84
2023-05-09T01:36:43.537Z,100593.25
2023-05-09T01:39:14.124Z,100586.63
2023-05-09T01:41:41.026Z,100602.81
2023-05-09T01:44:11.555Z,100595.34
2023-05-09T01:46:38.355Z,100597.19
2023-05-09T01:49:07.476Z,100598.25
2023-05-09T01:51:35.158Z,100589.78
2023-05-09T01:54:01.997Z,100601.97
2023-05-09T01:56:29.183Z,100599.31
2023-05-09T01:58:56.589Z,100593.28
2023-05-09T02:01:24.252Z,100591.25
2023-05-09T02:03:54.733Z,100589.13
2023-05-09T02:06:23.509Z,100587.31
2023-05-09T02:08:51.053Z,100591.03
2023-05-09T02:11:17.721Z,100588.75
2023-05-09T02:13:44.399Z,100587.94
2023-05-09T02:16:12.166Z,100578.41
2023-05-09T02:18:38.975Z,100578.63
2023-05-09T02:21:06.220Z,100578.63
2023-05-09T02:23:32.916Z,100574.06
2023-05-09T02:25:59.739Z,100578.00
2023-05-09T02:28:27.573Z,100579.47
2023-05-09T02:30:55.060Z,100568.47
2023-05-09T02:33:22.300Z,100564.13
2023-05-09T02:35:49.444Z,100558.16
2023-05-09T02:38:16.125Z,100557.72
2023-05-09T02:40:43.896Z,100553.19
2023-05-09T02:43:10.791Z,100553.38
2023-05-09T02:45:37.477Z,100551.31
2023-05-09T02:48:06.852Z,100547.41
2023-05-09T02:50:35.030Z,100549.28
2023-05-09T02:53:01.759Z,100548.25
2023-05-09T02:55:28.551Z,100545.78
2023-05-09T02:58:09.349Z,100537.72
2023-05-09T03:00:39.376Z,100544.75
2023-05-09T03:03:06.732Z,100538.75
2023-05-09T03:05:33.513Z,100528.59
2023-05-09T03:08:00.145Z,100531.25
2023-05-09T03:10:26.799Z,100533.34
2023-05-09T03:12:53.503Z,100533.38
2023-05-09T03:15:22.089Z,100525.75
2023-05-09T03:17:49.064Z,100527.59
2023-05-09T03:20:15.925Z,100528.00
2023-05-09T03:22:42.676Z,100524.88
2023-05-09T03:25:11.467Z,100522.78
2023-05-09T03:27:38.715Z,100514.94
2023-05-09T03:30:09.303Z,100523.03
2023-05-09T03:32:36.005Z,100522.00
2023-05-09T03:35:02.746Z,100518.06
2023-05-09T03:37:29.999Z,100521.59
2023-05-09T03:39:59.905Z,100530.69
2023-05-09T03:42:27.278Z,100528.03
2023-05-09T03:44:58.030Z,100534.41
2023-05-09T03:47:24.700Z,100526.75
2023-05-09T03:49:51.445Z,100528.16
2023-05-09T03:52:21.018Z,100515.16
2023-05-09T03:54:48.545Z,100520.72
2023-05-09T03:57:17.574Z,100520.69
2023-05-09T03:59:45.999Z,100518.03
2023-05-09T04:02:13.665Z,100513.91
2023-05-09T04:04:40.454Z,100512.84
2023-05-09T04:07:08.063Z,100514.53
2023-05-09T04:09:35.403Z,100507.28
2023-05-09T04:12:04.403Z,100514.09
2023-05-09T04:14:32.210Z,100511.16
2023-05-09T04:16:59.173Z,100501.88
2023-05-09T04:19:25.891Z,100507.00
2023-05-09T04:21:52.603Z,100508.78
2023-05-09T04:24:29.215Z,100501.56
2023-05-09T04:26:55.877Z,100505.22
2023-05-09T04:29:26.224Z,100500.06
2023-05-09T04:31:59.401Z,100500.59
2023-05-09T04:34:27.691Z,100491.91
2023-05-09T04:36:55.774Z,100496.16
2023-05-09T04:39:27.214Z,100493.75
2023-05-09T04:42:02.696Z,100483.59
2023-05-09T04:44:29.353Z,100489.41
2023-05-09T04:46:59.279Z,100479.69
2023-05-09T04:49:25.847Z,100476.88
2023-05-09T04:51:52.580Z,100474.31
2023-05-09T04:54:19.174Z,100473.88
2023-05-09T04:56:47.405Z,100474.34
2023-05-09T04:59:18.218Z,100475.97
2023-05-09T05:01:47.378Z,100479.94
2023-05-09T05:04:14.402Z,100473.75
2023-05-09T05:06:50.070Z,100478.72
2023-05-09T05:09:17.003Z,100475.28
2023-05-09T05:11:57.110Z,100463.88
2023-05-09T05:14:25.500Z,100459.69
2023-05-09T05:16:52.666Z,100454.97
2023-05-09T05:19:19.370Z,100458.13
2023-05-09T05:21:49.109Z,100451.09
2023-05-09T05:24:15.935Z,100439.78
2023-05-09T05:26:43.323Z,100446.84
2023-05-09T05:29:10.734Z,100439.00
2023-05-09T05:31:37.510Z,100442.06
2023-05-09T05:34:04.188Z,100446.34
2023-05-09T05:36:32.362Z,100441.75
2023-05-09T05:39:03.023Z,100436.97
2023-05-09T05:41:38.903Z,100437.56
2023-05-09T05:44:07.582Z,100433.53
2023-05-09T05:46:35.048Z,100437.66
2023-05-09T05:49:07.888Z,100432.63
2023-05-09T05:51:34.874Z,100433.84
2023-05-09T05:54:03.177Z,100434.22
2023-05-09T05:56:34.614Z,100436.38
2023-05-09T05:59:01.753Z,100432.56
2023-05-09T06:01:31.532Z,100434.13
2023-05-09T06:04:01.689Z,100430.97
2023-05-09T06:06:31.273Z,100423.28
2023-05-09T06:09:06.244Z,100425.59
2023-05-09T06:11:32.909Z,100414.63
2023-05-09T06:13:59.842Z,100426.22
2023-05-09T06:16:30.412Z,100423.44
2023-05-09T06:18:57.133Z,100423.28
2023-05-09T06:21:23.817Z,100420.13
2023-05-09T06:24:08.524Z,100413.56
2023-05-09T06:26:42.892Z,100416.44
2023-05-09T06:29:09.928Z,100413.63
2023-05-09T06:31:39.175Z,100408.47
2023-05-09T06:34:06.169Z,100403.56
2023-05-09T06:36:33.570Z,100401.44
2023-05-09T06:39:00.555Z,100393.44
2023-05-09T06:41:27.517Z,100395.66
2023-05-09T06:43:54.466Z,100390.16
2023-05-09T06:46:32.973Z,100380.75
2023-05-09T06:49:01.789Z,100377.03
2023-05-09T06:51:28.960Z,100373.38
2023-05-09T06:54:02.693Z,100370.41
2023-05-09T06:56:32.396Z,100360.84
2023-05-09T06:58:59.226Z,100361.97
2023-05-09T07:01:26.052Z,100357.94
2023-05-09T07:03:52.724Z,100356.91
2023-05-09T07:06:22.133Z,100356.78
2023-05-09T07:08:48.811Z,100348.94
2023-05-09T07:11:16.297Z,100343.38
2023-05-09T07:13:42.969Z,100340.28
2023-05-09T07:16:09.696Z,100334.38
2023-05-09T07:18:42.111Z,100334.28
2023-05-09T07:21:09.087Z,100330.50
2023-05-09T07:23:36.072Z,100323.28
2023-05-09T07:26:02.854Z,100319.25
2023-05-09T07:28:29.608Z,100314.75
2023-05-09T07:30:58.738Z,100308.63
2023-05-09T07:33:25.507Z,100300.06
2023-05-09T07:35:53.093Z,100302.84
2023-05-09T07:38:19.763Z,100299.00
2023-05-09T07:40:46.415Z,100300.53
2023-05-09T07:43:19.439Z,100291.75
2023-05-09T07:45:47.145Z,100293.09
2023-05-09T07:48:13.850Z,100295.34
2023-05-09T07:50:46.765Z,100286.09
2023-05-09T07:53:13.426Z,100279.66
2023-05-09T07:55:44.888Z,100279.19
2023-05-09T08:01:06.856Z,100271.34
2023-05-09T08:03:33.703Z,100270.56
2023-05-09T08:06:00.632Z,100264.78
2023-05-09T08:08:39.091Z,100261.81
2023-05-09T08:11:06.292Z,100266.41
2023-05-09T08:13:33.052Z,100260.78
2023-05-09T08:16:05.881Z,100254.50
2023-05-09T08:18:32.660Z,100257.28
2023-05-09T08:20:59.770Z,100256.66
2023-05-09T08:23:37.411Z,100260.06
2023-05-09T08:26:04.211Z,100254.34
2023-05-09T08:28:30.873Z,100247.72
2023-05-09T08:30:58.061Z,100250.50
2023-05-09T08:33:33.715Z,100242.03
2023-05-09T08:36:01.422Z,100249.78
2023-05-09T08:38:28.715Z,100248.03
2023-05-09T08:41:02.152Z,100239.53
2023-05-09T08:43:29.814Z,100235.16
2023-05-09T08:46:08.010Z,100233.66
2023-05-09T08:48:37.677Z,100229.53
2023-05-09T08:51:12.145Z,100227.81
2023-05-09T08:53:42.091Z,100226.41
2023-05-09T08:56:08.907Z,100217.66
2023-05-09T08:58:35.873Z,100223.75
2023-05-09T09:01:11.245Z,100227.94
2023-05-09T09:03:39.538Z,100215.06
2023-05-09T09:06:07.811Z,100214.00
2023-05-09T09:08:45.195Z,100205.09
2023-05-09T09:11:13.751Z,100201.00
2023-05-09T09:13:43.556Z,100195.03
2023-05-09T09:16:22.869Z,100201.19
2023-05-09T09:19:20.364Z,100190.03
2023-05-09T09:21:47.558Z,100176.94
2023-05-09T09:24:14.837Z,100179.13
2023-05-09T09:26:49.184Z,100181.22
2023-05-09T09:29:17.491Z,100178.63
2023-05-09T09:31:57.239Z,100175.16
2023-05-09T09:34:24.059Z,100175.69
2023-05-09T09:36:51.030Z,100160.72
2023-05-09T09:39:27.892Z,100167.00
2023-05-09T09:41:54.587Z,100153.63
2023-05-09T09:44:23.592Z,100157.22
2023-05-09T09:46:54.197Z,100150.38
2023-05-09T09:49:26.918Z,100148.22
2023-05-09T09:51:58.008Z,100150.94
2023-05-09T09:54:28.255Z,100147.69
2023-05-09T09:56:55.375Z,100137.06
2023-05-09T09:59:26.730Z,100131.91
2023-05-09T10:02:08.237Z,100139.50
2023-05-09T10:04:41.508Z,100126.44
2023-05-09T10:07:12.869Z,100118.41
2023-05-09T10:09:51.057Z,100120.44
2023-05-09T10:12:24.768Z,100124.31
2023-05-09T10:15:01.946Z,100109.31
2023-05-09T10:17:29.590Z,100108.69
2023-05-09T10:19:56.915Z,100116.00
2023-05-09T10:22:30.205Z,100113.88
2023-05-09T10:25:15.725Z,100103.22
2023-05-09T10:27:46.277Z,100102.25
2023-05-09T10:30:17.447Z,100094.53
2023-05-09T10:33:00.801Z,100078.38
2023-05-09T10:35:36.696Z,100082.63
2023-05-09T10:38:11.193Z,100086.69
2023-05-09T10:40:40.616Z,100084.09
2023-05-09T10:43:10.376Z,100071.41
2023-05-09T10:45:46.474Z,100066.13
2023-05-09T10:48:16.723Z,100061.69
2023-05-09T10:50:43.837Z,100053.75
2023-05-09T10:53:21.698Z,100053.03
2023-05-09T10:56:07.132Z,100053.56
2023-05-09T10:58:47.641Z,100049.28
2023-05-09T11:01:14.547Z,100037.91
2023-05-09T11:04:17.391Z,100035.34
2023-05-09T11:06:55.152Z,100029.66
2023-05-09T11:09:25.221Z,100016.78
2023-05-09T11:12:09.623Z,100032.63
2023-05-09T11:14:36.381Z,100028.75
2023-05-09T11:17:21.681Z,100010.44
2023-05-09T11:19:51.346Z,100010.19
2023-05-09T11:22:21.905Z,100015.81
2023-05-09T11:24:51.995Z,100011.50
2023-05-09T11:27:23.076Z,100016.81
2023-05-09T11:29:59.676Z,99998.25
2023-05-09T11:32:34.326Z,100000.91
2023-05-09T11:35:09.560Z,99989.38
2023-05-09T11:38:05.211Z,99983.41
2023-05-09T11:40:35.374Z,99979.69
2023-05-09T11:43:09.689Z,99983.22
2023-05-09T11:45:39.940Z,99965.84
2023-05-09T11:48:10.453Z,99975.66
2023-05-09T11:50:41.729Z,99969.97
2023-05-09T11:53:12.501Z,99973.59
2023-05-09T11:55:41.283Z,99964.25
2023-05-09T11:58:08.083Z,99965.81
2023-05-09T12:00:55.184Z,99959.53
2023-05-09T12:03:22.019Z,99957.03
2023-05-09T12:05:49.146Z,99954.72
2023-05-09T12:08:23.546Z,99949.47
2023-05-09T12:10:50.509Z,99938.88
2023-05-09T12:13:18.176Z,99940.84
2023-05-09T12:15:45.191Z,99934.16
2023-05-09T12:18:12.004Z,99933.81
2023-05-09T12:20:42.431Z,99924.22
2023-05-09T12:23:11.369Z,99924.47
2023-05-09T12:25:47.484Z,99913.31
2023-05-09T12:28:14.262Z,99924.81
2023-05-09T12:30:40.965Z,99911.94
2023-05-09T12:33:12.492Z,99917.28
2023-05-09T12:35:48.798Z,99913.81
2023-05-09T12:38:25.441Z,99904.22
2023-05-09T12:41:15.486Z,99898.63
2023-05-09T12:43:59.979Z,99903.03
2023-05-09T12:46:39.897Z,99894.59
2023-05-09T12:51:33.316Z,99888.81
2023-05-09T12:54:17.386Z,99887.72
2023-05-09T12:56:45.410Z,99889.78
2023-05-09T12:59:14.997Z,99879.06
2023-05-09T13:01:42.080Z,99876.06
2023-05-09T13:04:10.534Z,99871.69
2023-05-09T13:06:51.431Z,99869.31
2023-05-09T13:09:18.929Z,99861.94
2023-05-09T13:11:47.595Z,99859.63
2023-05-09T13:14:15.270Z,99855.28
2023-05-09T13:16:43.460Z,99854.94
2023-05-09T13:19:10.941Z,99852.28
2023-05-09T13:21:38.979Z,99854.50
2023-05-09T13:24:06.338Z,99841.03
2023-05-09T13:26:34.030Z,99832.94
2023-05-09T13:29:00.901Z,99824.22
2023-05-09T13:31:30.564Z,99823.78
2023-05-09T13:34:04.884Z,99830.06
2023-05-09T13:36:32.623Z,99820.13
2023-05-09T13:38:59.370Z,99815.34
2023-05-09T13:41:32.009Z,99815.91
2023-05-09T13:43:59.956Z,99806.84
2023-05-09T13:46:29.408Z,99811.41
2023-05-09T13:49:04.629Z,99802.28
2023-05-09T13:51:32.629Z,99800.78
2023-05-09T13:54:02.454Z,99803.84
2023-05-09T13:56:32.172Z,99803.91
2023-05-09T13:59:08.065Z,99798.06
2023-05-09T14:01:35.152Z,99789.44
2023-05-09T14:04:02.488Z,99780.84
2023-05-09T14:06:36.632Z,99787.91
2023-05-09T14:09:04.562Z,99775.69
2023-05-09T14:11:31.286Z,99777.78
2023-05-09T14:14:09.154Z,99779.06
2023-05-09T14:16:35.958Z,99760.94
2023-05-09T14:19:02.714Z,99767.38
2023-05-09T14:21:29.400Z,99743.13
2023-05-09T14:24:03.911Z,99756.28
2023-05-09T14:26:30.631Z,99743.19
2023-05-09T14:28:59.812Z,99733.19
2023-05-09T14:31:34.192Z,99738.00
2023-05-09T14:34:01.027Z,99725.69
2023-05-09T14:36:31.506Z,99722.59
2023-05-09T14:39:01.324Z,99720.88
2023-05-09T14:41:28.130Z,99717.69
2023-05-09T14:44:02.146Z,99715.78
2023-05-09T14:46:31.914Z,99707.00
2023-05-09T14:49:04.020Z,99708.97
2023-05-09T14:51:31.853Z,99709.31
2023-05-09T14:54:02.557Z,99713.75
2023-05-09T14:56:31.053Z,99714.75
2023-05-09T14:59:00.625Z,99695.91
2023-05-09T15:01:29.872Z,99689.66
2023-05-09T15:04:06.091Z,99697.00
2023-05-09T15:06:32.948Z,99690.41
2023-05-09T15:09:02.719Z,99695.97
2023-05-09T15:11:43.263Z,99689.88
2023-05-09T15:14:14.032Z,99689.13
2023-05-09T15:16:40.831Z,99684.38
2023-05-09T15:19:08.401Z,99680.88
2023-05-09T15:21:35.222Z,99674.53
2023-05-09T15:24:02.521Z,99680.94
2023-05-09T15:26:32.277Z,99674.25
2023-05-09T15:29:02.303Z,99675.28
2023-05-09T15:31:32.692Z,99671.88
2023-05-09T15:34:05.622Z,99667.94
2023-05-09T15:36:33.833Z,99671.41
2023-05-09T15:39:05.136Z,99677.97
2023-05-09T15:41:34.869Z,99676.56
2023-05-09T15:44:01.493Z,99665.47
2023-05-09T15:46:33.917Z,99669.28
2023-05-09T15:49:08.222Z,99669.84
2023-05-09T15:51:34.923Z,99663.44
2023-05-09T15:54:01.641Z,99657.13
2023-05-09T15:56:38.923Z,99657.31
2023-05-09T15:59:05.705Z,99643.19
2023-05-09T16:01:35.123Z,99640.03
2023-05-09T16:04:02.286Z,99641.72
2023-05-09T16:06:32.956Z,99641.63
2023-05-09T16:08:59.703Z,99628.03
2023-05-09T16:11:28.521Z,99645.19
2023-05-09T16:13:58.347Z,99635.94
2023-05-09T16:16:26.604Z,99642.75
2023-05-09T16:18:53.471Z,99623.59
2023-05-09T16:21:21.700Z,99622.78
2023-05-09T16:23:58.480Z,99614.19
2023-05-09T16:26:26.281Z,99618.09
2023-05-09T16:28:53.199Z,99624.44
2023-05-09T16:31:21.472Z,99617.66
2023-05-09T16:33:48.857Z,99610.59
2023-05-09T16:36:15.824Z,99610.31
2023-05-09T16:38:42.497Z,99602.91
2023-05-09T16:41:09.179Z,99604.34
2023-05-09T16:43:35.978Z,99598.09
2023-05-09T16:46:02.728Z,99605.56
2023-05-09T16:48:35.438Z,99599.66
2023-05-09T16:51:02.123Z,99605.44
2023-05-09T16:53:29.181Z,99596.28
2023-05-09T16:55:55.946Z,99593.44
2023-05-09T16:58:23.244Z,99589.09
2023-05-09T17:00:50.963Z,99583.19
2023-05-09T17:03:17.858Z,99589.00
2023-05-09T17:05:53.182Z,99580.31
2023-05-09T17:08:22.480Z,99574.97
2023-05-09T17:10:50.032Z,99574.84
2023-05-09T17:13:17.564Z,99577.78
2023-05-09T17:15:44.488Z,99576.69
2023-05-09T17:18:17.042Z,99578.31
2023-05-09T17:20:46.203Z,99569.41
2023-05-09T17:23:13.200Z,99569.34
2023-05-09T17:25:39.900Z,99566.97
2023-05-09T17:28:08.698Z,99566.66
2023-05-09T17:30:39.621Z,99558.88
2023-05-09T17:33:06.386Z,99558.00
2023-05-09T17:35:39.744Z,99555.81
2023-05-09T17:38:06.493Z,99557.34
2023-05-09T17:40:33.347Z,99556.16
2023-05-09T17:43:03.154Z,99550.44
2023-05-09T17:45:33.109Z,99548.63
2023-05-09T17:48:01.608Z,99536.97
2023-05-09T17:50:28.708Z,99540.84
2023-05-09T17:52:58.064Z,99543.84
2023-05-09T17:55:48.104Z,99538.72
2023-05-09T17:58:17.172Z,99532.81
2023-05-09T18:00:44.644Z,99520.41
2023-05-09T18:03:13.633Z,99521.25
2023-05-09T18:05:49.568Z,99514.47
2023-05-09T18:08:16.869Z,99522.34
2023-05-09T18:10:43.827Z,99514.78
2023-05-09T18:13:19.053Z,99506.13
2023-05-09T18:15:45.892Z,99515.66
2023-05-09T18:18:16.008Z,99519.16
2023-05-09T18:20:51.067Z,99519.44
2023-05-09T18:23:34.123Z,99524.06
2023-05-09T18:26:16.735Z,99549.22
2023-05-09T18:31:49.281Z,99536.78
2023-05-09T18:34:18.752Z,99532.47
2023-05-09T18:36:59.959Z,99541.41
2023-05-09T18:39:55.561Z,99549.81
2023-05-09T18:42:43.904Z,99546.53
2023-05-09T18:45:11.561Z,99534.09
2023-05-09T18:47:46.069Z,99544.63
2023-05-09T18:53:36.295Z,99541.41
2023-05-09T18:56:06.103Z,99539.25
2023-05-09T18:58:36.793Z,99535.69
2023-05-09T19:01:11.651Z,99526.69
2023-05-09T19:03:53.088Z,99545.91
2023-05-09T19:06:20.283Z,99551.56
2023-05-09T19:08:47.792Z,99564.25
2023-05-09T19:11:22.545Z,99570.00
2023-05-09T19:13:49.736Z,99577.84
2023-05-09T19:16:18.784Z,99572.72
2023-05-09T19:18:51.645Z,99578.34
2023-05-09T19:21:18.886Z,99584.53
2023-05-09T19:23:49.098Z,99595.28
2023-05-09T19:29:08.546Z,99607.91
2023-05-09T19:31:37.120Z,99632.50
2023-05-09T19:34:03.925Z,99636.81
2023-05-09T19:36:31.056Z,99640.88
2023-05-09T19:39:08.709Z,99653.28
2023-05-09T19:41:35.616Z,99654.34
2023-05-09T19:44:04.377Z,99661.34
2023-05-09T19:46:33.811Z,99665.34
2023-05-09T19:49:00.932Z,99684.78
2023-05-09T19:51:28.045Z,99692.00
2023-05-09T19:53:54.752Z,99685.47
2023-05-09T19:56:31.298Z,99693.53
2023-05-09T19:58:57.983Z,99697.59
2023-05-09T20:01:31.449Z,99700.84
2023-05-09T20:04:00.778Z,99699.97
2023-05-09T20:06:27.650Z,99698.66
2023-05-09T20:08:55.783Z,99699.72
2023-05-09T20:11:26.687Z,99708.13
2023-05-09T20:13:53.606Z,99711.34
2023-05-09T20:16:21.302Z,99707.84
2023-05-09T20:18:50.711Z,99706.16
2023-05-09T20:21:18.872Z,99703.41
2023-05-09T20:23:46.109Z,99701.22
2023-05-09T20:26:13.068Z,99704.13
2023-05-09T20:28:39.792Z,99713.47
2023-05-09T20:31:06.620Z,99713.44
2023-05-09T20:33:33.443Z,99708.25
2023-05-09T20:36:09.595Z,99713.31
2023-05-09T20:38:36.452Z,99714.66
2023-05-09T20:41:04.078Z,99721.06
2023-05-09T20:43:38.462Z,99727.44
2023-05-09T20:46:05.427Z,99727.44
2023-05-09T20:48:32.492Z,99736.94
2023-05-09T20:50:59.181Z,99742.13
2023-05-09T20:53:27.683Z,99745.56
2023-05-09T20:55:54.508Z,99750.69
2023-05-09T20:58:21.309Z,99756.03
2023-05-09T21:00:48.525Z,99759.00
2023-05-09T21:03:15.547Z,99761.63
2023-05-09T21:05:42.367Z,99765.34
2023-05-09T21:08:09.058Z,99777.34
2023-05-09T21:10:38.480Z,99783.25
2023-05-09T21:13:05.172Z,99788.34
2023-05-09T21:15:31.976Z,99793.53
2023-05-09T21:17:58.830Z,99799.13
2023-05-09T21:20:30.975Z,99797.22
2023-05-09T21:22:57.637Z,99802.25
2023-05-09T21:25:24.449Z,99805.66
2023-05-09T21:27:51.093Z,99809.69
2023-05-09T21:30:18.022Z,99808.63
2023-05-09T21:32:45.044Z,99808.28
2023-05-09T21:35:15.459Z,99805.94
2023-05-09T21:37:42.584Z,99803.38
2023-05-09T21:40:10.255Z,99794.63
2023-05-09T21:42:37.733Z,99799.47
2023-05-09T21:45:13.043Z,99790.53
2023-05-09T21:47:40.267Z,99783.41
2023-05-09T21:50:07.379Z,99790.72
2023-05-09T21:52:36.465Z,99781.47
2023-05-09T21:55:03.444Z,99777.56
2023-05-09T21:57:30.099Z,99774.28
2023-05-09T22:00:07.906Z,99767.47
2023-05-09T22:02:41.016Z,99755.56
2023-05-09T22:05:08.163Z,99753.50
2023-05-09T22:07:38.442Z,99756.69
2023-05-09T22:10:05.947Z,99760.59
2023-05-09T22:12:33.639Z,99764.63
2023-05-09T22:15:00.297Z,99761.84
2023-05-09T22:17:27.104Z,99747.53
2023-05-09T22:19:59.238Z,99738.88
2023-05-09T22:22:27.045Z,99742.03
2023-05-09T22:24:53.821Z,99747.13
2023-05-09T22:27:32.241Z,99748.66
2023-05-09T22:29:59.065Z,99737.31
2023-05-09T22:32:25.779Z,99742.69
2023-05-09T22:35:03.245Z,99743.19
2023-05-09T22:37:29.889Z,99750.13
2023-05-09T22:39:56.614Z,99745.06
2023-05-09T22:42:23.268Z,99741.56
2023-05-09T22:44:50.029Z,99741.88
2023-05-09T22:47:21.994Z,99732.50
2023-05-09T22:49:49.858Z,99735.41
2023-05-09T22:52:17.123Z,99738.38
2023-05-09T22:54:53.708Z,99726.75
2023-05-09T22:57:20.607Z,99727.59
2023-05-09T22:59:49.708Z,99727.34
2023-05-09T23:02:22.258Z,99724.66
2023-05-09T23:04:51.268Z,99718.75
2023-05-09T23:07:18.001Z,99720.75
2023-05-09T23:09:49.582Z,99720.97
2023-05-09T23:12:18.509Z,99719.03
2023-05-09T23:14:45.241Z,99714.69
2023-05-09T23:17:12.014Z,99717.31
2023-05-09T23:19:38.676Z,99707.50
2023-05-09T23:22:08.085Z,99706.31
2023-05-09T23:24:35.565Z,99702.47
2023-05-09T23:27:05.468Z,99698.41
2023-05-09T23:29:33.287Z,99697.25
2023-05-09T23:31:59.965Z,99703.69
2023-05-09T23:34:26.723Z,99706.88
2023-05-09T23:36:53.723Z,99710.06
2023-05-09T23:39:20.633Z,99704.28
2023-05-09T23:41:47.285Z,99694.84
2023-05-09T23:44:13.832Z,99696.13
2023-05-09T23:46:46.041Z,99695.31
2023-05-09T23:49:14.583Z,99695.78
2023-05-09T23:51:41.338Z,99695.78
2023-05-09T23:54:08.367Z,99698.22
2023-05-09T23:56:36.498Z,99693.69
2023-05-09T23:59:11.497Z,99686.88
